createdAt,value
2023-03-27T00:00:35.958Z,100726.00
2023-03-27T00:03:05.094Z,100727.75
2023-03-27T00:05:34.268Z,100738.44
2023-03-27T00:08:03.892Z,100741.63
2023-03-27T00:10:33.099Z,100745.19
2023-03-27T00:13:03.423Z,100753.25
2023-03-27T00:15:35.231Z,100753.09
2023-03-27T00:18:04.522Z,100760.84
2023-03-27T00:20:37.380Z,100760.38
2023-03-27T00:23:07.338Z,100760.38
2023-03-27T00:25:36.973Z,100759.75
2023-03-27T00:28:06.112Z,100761.44
2023-03-27T00:30:37.009Z,100762.81
2023-03-27T00:33:09.039Z,100760.97
2023-03-27T00:35:38.144Z,100753.22
2023-03-27T00:38:07.667Z,100767.06
2023-03-27T00:40:38.617Z,100759.41
2023-03-27T00:43:21.348Z,100761.06
2023-03-27T00:45:54.762Z,100771.16
2023-03-27T00:48:25.295Z,100761.38
2023-03-27T00:50:56.535Z,100768.97
2023-03-27T00:53:28.550Z,100763.44
2023-03-27T00:56:02.345Z,100763.59
2023-03-27T00:58:34.511Z,100768.97
2023-03-27T01:01:05.267Z,100777.94
2023-03-27T01:03:35.026Z,100787.66
2023-03-27T01:06:05.486Z,100772.38
2023-03-27T01:08:37.631Z,100777.38
2023-03-27T01:11:16.035Z,100779.38
2023-03-27T01:13:59.898Z,100766.25
2023-03-27T01:16:36.508Z,100775.94
2023-03-27T01:19:24.830Z,100780.69
2023-03-27T01:22:25.128Z,100782.03
2023-03-27T01:25:30.877Z,100777.84
2023-03-27T01:28:41.060Z,100782.09
2023-03-27T01:31:26.349Z,100781.84
2023-03-27T01:34:28.919Z,100789.66
2023-03-27T01:37:13.011Z,100781.38
2023-03-27T01:39:51.321Z,100788.19
2023-03-27T01:42:26.710Z,100793.28
2023-03-27T01:45:02.888Z,100793.09
2023-03-27T01:47:43.473Z,100793.28
2023-03-27T01:50:20.040Z,100795.94
2023-03-27T01:52:56.442Z,100798.53
2023-03-27T01:55:31.339Z,100798.13
2023-03-27T01:58:06.967Z,100796.44
2023-03-27T02:00:52.501Z,100802.59
2023-03-27T02:03:27.941Z,100803.44
2023-03-27T02:06:01.497Z,100807.41
2023-03-27T02:08:37.579Z,100814.03
2023-03-27T02:11:29.913Z,100817.47
2023-03-27T02:14:03.097Z,100813.78
2023-03-27T02:16:35.206Z,100812.34
2023-03-27T02:19:10.969Z,100812.94
2023-03-27T02:21:40.154Z,100820.69
2023-03-27T02:24:09.615Z,100817.31
2023-03-27T02:26:40.245Z,100824.31
2023-03-27T02:29:35.150Z,100839.81
2023-03-27T02:32:19.085Z,100834.44
2023-03-27T02:35:02.873Z,100829.53
2023-03-27T02:37:39.665Z,100838.09
2023-03-27T02:40:28.485Z,100840.19
2023-03-27T02:43:16.825Z,100845.66
2023-03-27T02:45:53.425Z,100846.41
2023-03-27T02:48:28.709Z,100843.78
2023-03-27T02:51:02.047Z,100846.06
2023-03-27T02:53:37.852Z,100855.34
2023-03-27T02:56:12.901Z,100852.84
2023-03-27T02:58:50.997Z,100866.81
2023-03-27T03:01:36.081Z,100857.94
2023-03-27T03:04:20.908Z,100864.00
2023-03-27T03:07:06.448Z,100862.41
2023-03-27T03:09:40.541Z,100861.69
2023-03-27T03:12:11.092Z,100868.81
2023-03-27T03:14:45.056Z,100867.47
2023-03-27T03:17:15.460Z,100859.53
2023-03-27T03:19:44.663Z,100860.50
2023-03-27T03:22:13.922Z,100862.63
2023-03-27T03:24:43.554Z,100872.44
2023-03-27T03:27:15.742Z,100871.31
2023-03-27T03:29:56.721Z,100870.53
2023-03-27T03:32:30.318Z,100884.06
2023-03-27T03:35:01.510Z,100886.50
2023-03-27T03:37:38.538Z,100885.34
2023-03-27T03:40:11.982Z,100889.19
2023-03-27T03:42:47.899Z,100896.81
2023-03-27T03:45:20.334Z,100907.19
2023-03-27T03:47:49.455Z,100910.66
2023-03-27T03:50:18.772Z,100904.78
2023-03-27T03:52:47.842Z,100907.88
2023-03-27T03:55:17.042Z,100905.94
2023-03-27T03:57:48.335Z,100902.78
2023-03-27T04:00:28.323Z,100918.38
2023-03-27T04:02:59.580Z,100922.41
2023-03-27T04:05:28.897Z,100920.22
2023-03-27T04:08:00.718Z,100913.00
2023-03-27T04:10:41.246Z,100920.41
2023-03-27T04:13:38.251Z,100920.91
2023-03-27T04:16:18.864Z,100926.97
2023-03-27T04:18:54.485Z,100920.00
2023-03-27T04:21:27.478Z,100927.75
2023-03-27T04:24:02.548Z,100927.81
2023-03-27T04:26:44.115Z,100934.81
2023-03-27T04:29:36.209Z,100939.75
2023-03-27T04:32:27.423Z,100942.28
2023-03-27T04:35:33.451Z,100943.31
2023-03-27T04:38:14.639Z,100943.56
2023-03-27T04:40:49.322Z,100940.22
2023-03-27T04:43:19.837Z,100947.44
2023-03-27T04:45:49.036Z,100950.56
2023-03-27T04:48:21.015Z,100951.22
2023-03-27T04:50:54.157Z,100952.81
2023-03-27T04:53:37.719Z,100963.06
2023-03-27T04:56:09.548Z,100966.66
2023-03-27T04:58:46.649Z,100962.34
2023-03-27T05:01:19.044Z,100972.78
2023-03-27T05:04:13.142Z,100973.63
2023-03-27T05:06:52.415Z,100979.75
2023-03-27T05:09:22.651Z,100987.56
2023-03-27T05:11:52.403Z,100984.22
2023-03-27T05:14:23.336Z,100987.25
2023-03-27T05:16:53.544Z,100990.78
2023-03-27T05:19:26.668Z,100988.31
2023-03-27T05:22:01.138Z,100981.47
2023-03-27T05:24:30.546Z,100980.94
2023-03-27T05:26:59.669Z,100992.59
2023-03-27T05:29:30.146Z,100999.31
2023-03-27T05:32:16.170Z,100993.97
2023-03-27T05:34:54.567Z,100998.34
2023-03-27T05:37:26.979Z,100994.78
2023-03-27T05:40:17.556Z,100999.75
2023-03-27T05:42:48.505Z,101006.16
2023-03-27T05:45:18.553Z,101008.81
2023-03-27T05:47:49.089Z,101005.63
2023-03-27T05:50:21.456Z,101010.66
2023-03-27T05:52:56.847Z,101017.38
2023-03-27T05:55:33.493Z,101017.28
2023-03-27T05:58:03.534Z,101016.75
2023-03-27T06:00:34.231Z,101023.34
2023-03-27T06:03:05.083Z,101026.34
2023-03-27T06:05:55.119Z,101036.75
2023-03-27T06:08:24.406Z,101029.50
2023-03-27T06:10:58.846Z,101032.72
2023-03-27T06:13:36.048Z,101035.84
2023-03-27T06:16:10.445Z,101037.44
2023-03-27T06:18:59.943Z,101040.66
2023-03-27T06:21:31.143Z,101052.56
2023-03-27T06:24:04.017Z,101053.59
2023-03-27T06:26:33.935Z,101045.69
2023-03-27T06:29:08.105Z,101048.00
2023-03-27T06:31:38.923Z,101052.88
2023-03-27T06:34:34.241Z,101057.84
2023-03-27T06:37:18.257Z,101059.38
2023-03-27T06:39:50.621Z,101075.19
2023-03-27T06:42:20.436Z,101100.09
2023-03-27T06:44:57.458Z,101122.84
2023-03-27T06:47:54.756Z,101107.09
2023-03-27T06:50:35.672Z,101118.25
2023-03-27T06:53:15.887Z,101115.56
2023-03-27T06:55:52.999Z,101112.94
2023-03-27T06:58:23.008Z,101128.38
2023-03-27T07:00:52.578Z,101120.75
2023-03-27T07:03:23.085Z,101121.13
2023-03-27T07:06:10.899Z,101122.50
2023-03-27T07:08:54.325Z,101111.69
2023-03-27T07:11:23.424Z,101124.00
2023-03-27T07:14:02.504Z,101112.59
2023-03-27T07:16:32.874Z,101118.72
2023-03-27T07:19:02.883Z,101125.03
2023-03-27T07:21:34.590Z,101128.19
2023-03-27T07:24:05.231Z,101117.47
2023-03-27T07:26:36.376Z,101119.38
2023-03-27T07:29:34.569Z,101114.94
2023-03-27T07:32:07.168Z,101115.69
2023-03-27T07:34:50.273Z,101113.34
2023-03-27T07:37:38.709Z,101111.47
2023-03-27T07:40:41.451Z,101110.56
2023-03-27T07:43:39.915Z,101114.44
2023-03-27T07:46:09.816Z,101121.13
2023-03-27T07:48:38.977Z,101122.44
2023-03-27T07:51:14.249Z,101121.88
2023-03-27T07:53:44.940Z,101120.16
2023-03-27T07:56:34.209Z,101132.53
2023-03-27T07:59:28.321Z,101139.94
2023-03-27T08:02:01.004Z,101132.16
2023-03-27T08:04:31.179Z,101136.63
2023-03-27T08:07:09.598Z,101136.16
2023-03-27T08:09:39.669Z,101136.16
2023-03-27T08:12:10.707Z,101140.81
2023-03-27T08:14:46.948Z,101147.84
2023-03-27T08:17:22.319Z,101150.38
2023-03-27T08:19:52.237Z,101158.34
2023-03-27T08:22:22.374Z,101146.06
2023-03-27T08:25:11.069Z,101158.63
2023-03-27T08:27:44.643Z,101154.56
2023-03-27T08:30:17.095Z,101158.50
2023-03-27T08:32:46.885Z,101161.13
2023-03-27T08:35:17.153Z,101153.16
2023-03-27T08:37:46.417Z,101163.03
2023-03-27T08:40:39.346Z,101167.22
2023-03-27T08:43:29.572Z,101160.84
2023-03-27T08:46:04.532Z,101171.94
2023-03-27T08:48:43.190Z,101167.66
2023-03-27T08:51:16.307Z,101177.38
2023-03-27T08:53:49.185Z,101177.13
2023-03-27T08:56:27.140Z,101188.72
2023-03-27T08:58:58.657Z,101186.47
2023-03-27T09:01:41.081Z,101178.28
2023-03-27T09:04:23.130Z,101182.31
2023-03-27T09:07:00.543Z,101191.88
2023-03-27T09:09:44.953Z,101195.19
2023-03-27T09:12:27.933Z,101197.69
2023-03-27T09:15:06.049Z,101196.81
2023-03-27T09:17:39.261Z,101191.25
2023-03-27T09:20:19.936Z,101192.75
2023-03-27T09:22:55.695Z,101196.38
2023-03-27T09:25:59.777Z,101203.38
2023-03-27T09:28:51.608Z,101192.88
2023-03-27T09:31:30.432Z,101195.56
2023-03-27T09:34:05.554Z,101204.22
2023-03-27T09:36:35.778Z,101196.19
2023-03-27T09:39:08.258Z,101198.47
2023-03-27T09:41:43.700Z,101196.75
2023-03-27T09:44:20.723Z,101201.03
2023-03-27T09:46:57.876Z,101203.31
2023-03-27T09:49:28.009Z,101216.94
2023-03-27T09:52:00.299Z,101210.72
2023-03-27T09:54:57.117Z,101206.19
2023-03-27T09:57:40.338Z,101200.25
2023-03-27T10:00:26.765Z,101208.88
2023-03-27T10:03:05.798Z,101189.38
2023-03-27T10:05:38.809Z,101201.34
2023-03-27T10:08:40.644Z,101206.34
2023-03-27T10:11:19.757Z,101205.66
2023-03-27T10:13:55.910Z,101209.53
2023-03-27T10:16:29.085Z,101223.91
2023-03-27T10:19:03.832Z,101219.81
2023-03-27T10:21:43.154Z,101224.38
2023-03-27T10:24:27.347Z,101238.34
2023-03-27T10:27:21.389Z,101240.72
2023-03-27T10:30:28.337Z,101253.09
2023-03-27T10:33:07.260Z,101268.31
2023-03-27T10:35:54.419Z,101303.91
2023-03-27T10:38:34.282Z,101334.66
2023-03-27T10:41:29.084Z,101337.88
2023-03-27T10:44:00.766Z,101350.09
2023-03-27T10:46:31.690Z,101328.22
2023-03-27T10:49:25.404Z,101316.63
2023-03-27T10:52:05.525Z,101319.53
2023-03-27T10:54:58.846Z,101307.94
2023-03-27T10:57:31.167Z,101307.28
2023-03-27T11:00:13.627Z,101307.75
2023-03-27T11:02:58.265Z,101311.44
2023-03-27T11:05:36.253Z,101309.81
2023-03-27T11:08:21.548Z,101298.03
2023-03-27T11:10:51.994Z,101303.22
2023-03-27T11:13:32.168Z,101300.63
2023-03-27T11:16:17.641Z,101295.06
2023-03-27T11:19:23.542Z,101294.53
2023-03-27T11:22:29.219Z,101294.16
2023-03-27T11:25:05.751Z,101289.19
2023-03-27T11:27:41.146Z,101282.91
2023-03-27T11:30:32.820Z,101276.13
2023-03-27T11:33:16.900Z,101274.84
2023-03-27T11:35:52.457Z,101279.97
2023-03-27T11:38:45.593Z,101275.03
2023-03-27T11:41:16.843Z,101277.88
2023-03-27T11:43:45.961Z,101273.94
2023-03-27T11:47:00.114Z,101269.47
2023-03-27T11:49:45.318Z,101274.59
2023-03-27T11:52:27.048Z,101292.22
2023-03-27T11:55:08.873Z,101300.13
2023-03-27T11:57:57.614Z,101310.44
2023-03-27T12:00:36.252Z,101323.66
2023-03-27T12:03:29.544Z,101329.28
2023-03-27T12:06:14.146Z,101349.56
2023-03-27T12:09:09.807Z,101342.28
2023-03-27T12:12:10.960Z,101325.41
2023-03-27T12:14:55.597Z,101327.69
2023-03-27T12:17:39.208Z,101313.75
2023-03-27T12:20:41.560Z,101313.63
2023-03-27T12:23:28.063Z,101314.31
2023-03-27T12:26:48.425Z,101304.88
2023-03-27T12:29:50.767Z,101295.91
2023-03-27T12:32:39.846Z,101301.69
2023-03-27T12:35:13.319Z,101291.22
2023-03-27T12:37:51.962Z,101278.06
2023-03-27T12:40:30.479Z,101286.94
2023-03-27T12:43:27.319Z,101294.97
2023-03-27T12:46:20.054Z,101282.81
2023-03-27T12:48:55.419Z,101284.28
2023-03-27T12:51:38.851Z,101292.19
2023-03-27T12:54:25.760Z,101304.22
2023-03-27T12:57:05.589Z,101298.94
2023-03-27T12:59:39.076Z,101286.50
2023-03-27T13:03:02.576Z,101305.81
2023-03-27T13:06:12.549Z,101309.84
2023-03-27T13:09:05.100Z,101298.84
2023-03-27T13:11:49.498Z,101291.47
2023-03-27T13:14:45.271Z,101303.00
2023-03-27T13:17:43.974Z,101302.66
2023-03-27T13:20:27.207Z,101310.56
2023-03-27T13:23:11.346Z,101300.91
2023-03-27T13:26:04.277Z,101303.72
2023-03-27T13:28:38.769Z,101302.22
2023-03-27T13:32:01.612Z,101293.69
2023-03-27T13:35:00.572Z,101293.63
2023-03-27T13:37:48.992Z,101295.34
2023-03-27T13:40:26.498Z,101290.84
2023-03-27T13:43:18.213Z,101302.06
2023-03-27T13:45:50.878Z,101282.34
2023-03-27T13:49:00.207Z,101279.38
2023-03-27T13:52:06.007Z,101275.22
2023-03-27T13:55:10.540Z,101279.31
2023-03-27T13:58:12.380Z,101281.41
2023-03-27T14:01:09.599Z,101280.44
2023-03-27T14:04:07.313Z,101280.91
2023-03-27T14:07:17.111Z,101266.19
2023-03-27T14:10:44.831Z,101280.16
2023-03-27T14:13:38.437Z,101299.81
2023-03-27T14:16:39.635Z,101296.41
2023-03-27T14:19:33.906Z,101306.47
2023-03-27T14:22:11.148Z,101311.75
2023-03-27T14:24:55.871Z,101316.03
2023-03-27T14:27:51.705Z,101307.97
2023-03-27T14:30:24.033Z,101326.75
2023-03-27T14:33:10.819Z,101322.16
2023-03-27T14:35:44.510Z,101327.59
2023-03-27T14:38:23.219Z,101326.16
2023-03-27T14:40:56.857Z,101316.78
2023-03-27T14:43:48.376Z,101321.19
2023-03-27T14:46:20.023Z,101319.88
2023-03-27T14:48:53.720Z,101306.19
2023-03-27T14:51:34.857Z,101311.44
2023-03-27T14:54:07.895Z,101311.66
2023-03-27T14:56:47.494Z,101317.53
2023-03-27T14:59:26.776Z,101316.53
2023-03-27T15:02:03.026Z,101307.38
2023-03-27T15:04:33.839Z,101314.72
2023-03-27T15:07:19.784Z,101323.88
2023-03-27T15:10:16.726Z,101318.19
2023-03-27T15:13:04.147Z,101321.91
2023-03-27T15:15:39.638Z,101349.88
2023-03-27T15:18:16.573Z,101327.56
2023-03-27T15:20:46.387Z,101341.75
2023-03-27T15:23:22.325Z,101342.16
2023-03-27T15:25:57.260Z,101336.16
2023-03-27T15:28:32.602Z,101324.09
2023-03-27T15:31:04.810Z,101334.09
2023-03-27T15:33:40.990Z,101350.31
2023-03-27T15:36:28.374Z,101356.06
2023-03-27T15:39:01.136Z,101336.66
2023-03-27T15:41:43.967Z,101363.38
2023-03-27T15:44:18.561Z,101372.38
2023-03-27T15:47:00.457Z,101367.34
2023-03-27T15:49:33.410Z,101371.66
2023-03-27T15:52:30.125Z,101366.78
2023-03-27T15:55:00.268Z,101359.31
2023-03-27T15:57:30.559Z,101361.00
2023-03-27T16:00:04.152Z,101361.13
2023-03-27T16:02:43.613Z,101360.66
2023-03-27T16:05:17.354Z,101355.63
2023-03-27T16:07:48.613Z,101356.91
2023-03-27T16:10:30.752Z,101371.44
2023-03-27T16:13:02.706Z,101364.53
2023-03-27T16:15:34.780Z,101372.09
2023-03-27T16:18:17.855Z,101376.28
2023-03-27T16:20:47.303Z,101375.13
2023-03-27T16:23:16.574Z,101377.22
2023-03-27T16:25:45.774Z,101369.75
2023-03-27T16:28:17.584Z,101374.19
2023-03-27T16:30:47.485Z,101380.47
2023-03-27T16:33:20.422Z,101405.50
2023-03-27T16:35:50.316Z,101419.50
2023-03-27T16:38:20.035Z,101413.09
2023-03-27T16:40:49.640Z,101409.50
2023-03-27T16:43:18.671Z,101396.06
2023-03-27T16:45:47.964Z,101393.97
2023-03-27T16:48:18.468Z,101390.53
2023-03-27T16:50:47.521Z,101402.00
2023-03-27T16:53:16.602Z,101403.97
2023-03-27T16:55:45.777Z,101402.06
2023-03-27T16:58:14.954Z,101406.97
2023-03-27T17:00:44.127Z,101399.03
2023-03-27T17:03:13.194Z,101392.69
2023-03-27T17:05:44.126Z,101395.81
2023-03-27T17:08:16.340Z,101395.75
2023-03-27T17:10:48.643Z,101404.66
2023-03-27T17:13:17.759Z,101418.84
2023-03-27T17:15:50.355Z,101425.34
2023-03-27T17:18:19.442Z,101414.81
2023-03-27T17:20:50.122Z,101418.31
2023-03-27T17:23:19.268Z,101434.56
2023-03-27T17:25:49.515Z,101430.19
2023-03-27T17:28:18.813Z,101440.66
2023-03-27T17:31:01.129Z,101443.06
2023-03-27T17:33:35.112Z,101448.13
2023-03-27T17:36:11.179Z,101446.97
2023-03-27T17:38:41.476Z,101465.00
2023-03-27T17:41:12.822Z,101485.22
2023-03-27T17:43:42.151Z,101498.28
2023-03-27T17:46:13.740Z,101482.72
2023-03-27T17:48:43.564Z,101462.78
2023-03-27T17:51:14.168Z,101471.00
2023-03-27T17:53:43.410Z,101474.44
2023-03-27T17:56:12.540Z,101469.44
2023-03-27T17:58:41.784Z,101464.53
2023-03-27T18:01:15.690Z,101469.84
2023-03-27T18:03:46.033Z,101465.00
2023-03-27T18:06:18.267Z,101461.47
2023-03-27T18:08:48.427Z,101461.34
2023-03-27T18:11:17.697Z,101456.16
2023-03-27T18:13:51.388Z,101458.88
2023-03-27T18:16:21.841Z,101469.38
2023-03-27T18:18:54.890Z,101461.78
2023-03-27T18:21:26.068Z,101464.38
2023-03-27T18:23:59.692Z,101473.69
2023-03-27T18:26:29.345Z,101481.09
2023-03-27T18:28:58.715Z,101478.56
2023-03-27T18:31:28.344Z,101485.06
2023-03-27T18:33:57.555Z,101489.72
2023-03-27T18:36:28.418Z,101479.91
2023-03-27T18:38:58.564Z,101484.56
2023-03-27T18:41:27.835Z,101482.00
2023-03-27T18:43:57.236Z,101480.28
2023-03-27T18:46:26.465Z,101486.72
2023-03-27T18:48:58.508Z,101482.00
2023-03-27T18:51:28.971Z,101486.34
2023-03-27T18:53:58.652Z,101477.13
2023-03-27T18:56:27.734Z,101483.84
2023-03-27T18:58:56.955Z,101476.19
2023-03-27T19:01:26.841Z,101473.06
2023-03-27T19:03:56.038Z,101473.06
2023-03-27T19:06:25.399Z,101477.72
2023-03-27T19:08:55.971Z,101473.69
2023-03-27T19:11:25.430Z,101469.34
2023-03-27T19:14:10.213Z,101479.03
2023-03-27T19:16:54.387Z,101479.34
2023-03-27T19:19:54.093Z,101467.09
2023-03-27T19:22:23.087Z,101469.69
2023-03-27T19:25:03.320Z,101474.03
2023-03-27T19:27:38.397Z,101478.72
2023-03-27T19:30:10.577Z,101467.47
2023-03-27T19:32:39.934Z,101475.66
2023-03-27T19:35:09.976Z,101479.69
2023-03-27T19:37:38.979Z,101479.44
2023-03-27T19:40:10.793Z,101488.25
2023-03-27T19:42:42.355Z,101502.03
2023-03-27T19:45:11.844Z,101504.66
2023-03-27T19:47:41.291Z,101497.69
2023-03-27T19:50:11.100Z,101474.00
2023-03-27T19:53:05.483Z,101466.66
2023-03-27T19:55:39.368Z,101482.94
2023-03-27T19:58:08.704Z,101493.94
2023-03-27T20:00:39.595Z,101502.25
2023-03-27T20:03:10.336Z,101497.97
2023-03-27T20:05:41.185Z,101504.69
2023-03-27T20:08:10.389Z,101500.84
2023-03-27T20:10:40.943Z,101510.38
2023-03-27T20:13:10.191Z,101504.34
2023-03-27T20:15:41.833Z,101515.91
2023-03-27T20:18:11.008Z,101520.53
2023-03-27T20:20:40.649Z,101525.03
2023-03-27T20:23:09.909Z,101529.22
2023-03-27T20:25:40.747Z,101534.06
2023-03-27T20:28:10.010Z,101540.25
2023-03-27T20:30:41.090Z,101536.84
2023-03-27T20:33:10.246Z,101541.34
2023-03-27T20:35:41.718Z,101525.06
2023-03-27T20:38:12.475Z,101516.00
2023-03-27T20:40:52.772Z,101514.59
2023-03-27T20:43:27.016Z,101516.88
2023-03-27T20:45:58.748Z,101513.50
2023-03-27T20:48:32.363Z,101524.44
2023-03-27T20:51:05.930Z,101526.00
2023-03-27T20:53:39.862Z,101532.84
2023-03-27T20:56:14.236Z,101537.13
2023-03-27T20:58:44.287Z,101541.03
2023-03-27T21:01:13.485Z,101533.47
2023-03-27T21:03:46.014Z,101533.31
2023-03-27T21:06:18.437Z,101532.56
2023-03-27T21:08:48.248Z,101539.53
2023-03-27T21:11:18.735Z,101531.94
2023-03-27T21:13:47.750Z,101532.13
2023-03-27T21:16:16.868Z,101533.06
2023-03-27T21:18:45.875Z,101533.09
2023-03-27T21:21:15.729Z,101527.06
2023-03-27T21:23:44.850Z,101538.75
2023-03-27T21:26:13.939Z,101553.69
2023-03-27T21:28:44.456Z,101553.78
2023-03-27T21:31:13.757Z,101556.28
2023-03-27T21:33:42.805Z,101562.25
2023-03-27T21:36:12.944Z,101567.25
2023-03-27T21:38:42.255Z,101571.09
2023-03-27T21:41:13.858Z,101576.19
2023-03-27T21:43:44.328Z,101582.31
2023-03-27T21:46:13.576Z,101571.13
2023-03-27T21:48:44.657Z,101573.06
2023-03-27T21:51:13.723Z,101565.41
2023-03-27T21:53:42.820Z,101563.13
2023-03-27T21:56:12.042Z,101573.25
2023-03-27T21:58:41.116Z,101583.06
2023-03-27T22:01:11.646Z,101596.56
2023-03-27T22:03:40.826Z,101588.84
2023-03-27T22:06:13.029Z,101578.16
2023-03-27T22:08:43.858Z,101577.50
2023-03-27T22:11:13.634Z,101573.78
2023-03-27T22:13:43.367Z,101584.81
2023-03-27T22:16:16.118Z,101591.22
2023-03-27T22:18:45.732Z,101605.78
2023-03-27T22:21:17.002Z,101608.09
2023-03-27T22:23:46.496Z,101607.34
2023-03-27T22:26:15.606Z,101601.88
2023-03-27T22:28:44.811Z,101605.97
2023-03-27T22:31:15.318Z,101619.03
2023-03-27T22:33:44.441Z,101613.84
2023-03-27T22:36:14.178Z,101617.16
2023-03-27T22:38:43.557Z,101615.47
2023-03-27T22:41:14.133Z,101618.69
2023-03-27T22:43:43.529Z,101621.94
2023-03-27T22:46:16.162Z,101625.53
2023-03-27T22:48:45.617Z,101627.34
2023-03-27T22:51:15.272Z,101626.72
2023-03-27T22:53:44.337Z,101633.19
2023-03-27T22:56:13.481Z,101634.97
2023-03-27T22:58:42.549Z,101637.53
2023-03-27T23:01:11.620Z,101641.97
2023-03-27T23:03:42.173Z,101640.09
2023-03-27T23:06:18.198Z,101640.59
2023-03-27T23:08:48.389Z,101647.59
2023-03-27T23:11:17.972Z,101658.94
2023-03-27T23:13:47.316Z,101664.13
2023-03-27T23:16:16.567Z,101660.06
2023-03-27T23:18:47.004Z,101668.03
2023-03-27T23:21:17.721Z,101671.47
2023-03-27T23:23:46.954Z,101673.34
2023-03-27T23:26:18.001Z,101675.28
2023-03-27T23:28:47.322Z,101686.34
2023-03-27T23:31:18.010Z,101676.84
2023-03-27T23:33:50.465Z,101684.75
2023-03-27T23:36:21.353Z,101681.00
2023-03-27T23:38:52.365Z,101692.81
2023-03-27T23:41:22.019Z,101697.16
2023-03-27T23:43:51.352Z,101705.84
2023-03-27T23:46:20.499Z,101715.34
2023-03-27T23:48:50.954Z,101718.22
2023-03-27T23:51:20.045Z,101719.97
2023-03-27T23:53:49.126Z,101735.47
2023-03-27T23:56:18.319Z,101744.19
2023-03-27T23:58:47.356Z,101747.66
